sensor_id;sensor_type;location;lat;lon;timestamp;P1;durP1;ratioP1;P2;durP2;ratioP2
22939;SDS011;11636;52.086;5.090;2022-07-12T00:00:54;2.10;;;1.10;;
22939;SDS011;11636;52.086;5.090;2022-07-12T00:03:21;1.85;;;1.05;;
22939;SDS011;11636;52.086;5.090;2022-07-12T00:05:51;2.00;;;0.98;;
22939;SDS011;11636;52.086;5.090;2022-07-12T00:08:24;2.40;;;0.90;;
22939;SDS011;11636;52.086;5.090;2022-07-12T00:10:58;2.10;;;1.00;;
22939;SDS011;11636;52.086;5.090;2022-07-12T00:13:25;2.30;;;1.10;;
22939;SDS011;11636;52.086;5.090;2022-07-12T00:15:58;2.15;;;1.20;;
22939;SDS011;11636;52.086;5.090;2022-07-12T00:18:28;2.00;;;1.10;;
22939;SDS011;11636;52.086;5.090;2022-07-12T00:21:01;2.22;;;0.90;;
22939;SDS011;11636;52.086;5.090;2022-07-12T00:23:28;1.73;;;0.90;;
22939;SDS011;11636;52.086;5.090;2022-07-12T00:26:01;1.70;;;1.00;;
22939;SDS011;11636;52.086;5.090;2022-07-12T00:28:31;1.60;;;0.80;;
22939;SDS011;11636;52.086;5.090;2022-07-12T00:31:04;2.13;;;0.90;;
22939;SDS011;11636;52.086;5.090;2022-07-12T00:33:31;2.30;;;0.98;;
22939;SDS011;11636;52.086;5.090;2022-07-12T00:35:58;2.00;;;1.00;;
22939;SDS011;11636;52.086;5.090;2022-07-12T00:38:31;2.30;;;1.10;;
22939;SDS011;11636;52.086;5.090;2022-07-12T00:41:04;1.77;;;0.88;;
22939;SDS011;11636;52.086;5.090;2022-07-12T00:43:31;2.10;;;1.05;;
22939;SDS011;11636;52.086;5.090;2022-07-12T00:45:58;1.70;;;0.90;;
22939;SDS011;11636;52.086;5.090;2022-07-12T00:48:32;2.00;;;1.05;;
22939;SDS011;11636;52.086;5.090;2022-07-12T00:51:00;2.05;;;1.10;;
22939;SDS011;11636;52.086;5.090;2022-07-12T00:53:34;1.90;;;1.10;;
22939;SDS011;11636;52.086;5.090;2022-07-12T00:56:05;2.72;;;1.30;;
22939;SDS011;11636;52.086;5.090;2022-07-12T00:58:39;2.30;;;1.13;;
22939;SDS011;11636;52.086;5.090;2022-07-12T01:01:07;2.80;;;1.17;;
22939;SDS011;11636;52.086;5.090;2022-07-12T01:03:41;1.75;;;1.00;;
22939;SDS011;11636;52.086;5.090;2022-07-12T01:06:11;1.70;;;1.10;;
22939;SDS011;11636;52.086;5.090;2022-07-12T01:08:45;2.20;;;1.10;;
22939;SDS011;11636;52.086;5.090;2022-07-12T01:11:12;2.15;;;1.20;;
22939;SDS011;11636;52.086;5.090;2022-07-12T01:13:46;1.70;;;1.00;;
22939;SDS011;11636;52.086;5.090;2022-07-12T01:16:21;2.92;;;1.20;;
22939;SDS011;11636;52.086;5.090;2022-07-12T01:18:49;2.60;;;1.20;;
22939;SDS011;11636;52.086;5.090;2022-07-12T01:21:23;2.67;;;1.23;;
22939;SDS011;11636;52.086;5.090;2022-07-12T01:23:56;2.60;;;1.23;;
22939;SDS011;11636;52.086;5.090;2022-07-12T01:26:31;2.92;;;1.30;;
22939;SDS011;11636;52.086;5.090;2022-07-12T01:28:58;2.22;;;1.10;;
22939;SDS011;11636;52.086;5.090;2022-07-12T01:31:33;2.33;;;1.10;;
22939;SDS011;11636;52.086;5.090;2022-07-12T01:34:02;3.47;;;1.20;;
22939;SDS011;11636;52.086;5.090;2022-07-12T01:36:36;1.88;;;0.90;;
22939;SDS011;11636;52.086;5.090;2022-07-12T01:39:04;2.40;;;1.48;;
22939;SDS011;11636;52.086;5.090;2022-07-12T01:41:37;2.08;;;1.30;;
22939;SDS011;11636;52.086;5.090;2022-07-12T01:44:11;2.40;;;1.25;;
22939;SDS011;11636;52.086;5.090;2022-07-12T01:46:49;2.30;;;1.58;;
22939;SDS011;11636;52.086;5.090;2022-07-12T01:49:22;2.28;;;1.30;;
22939;SDS011;11636;52.086;5.090;2022-07-12T01:51:55;3.00;;;1.50;;
22939;SDS011;11636;52.086;5.090;2022-07-12T01:54:30;2.40;;;1.30;;
22939;SDS011;11636;52.086;5.090;2022-07-12T01:56:57;2.08;;;1.40;;
22939;SDS011;11636;52.086;5.090;2022-07-12T01:59:24;2.70;;;1.55;;
22939;SDS011;11636;52.086;5.090;2022-07-12T02:01:58;2.00;;;1.10;;
22939;SDS011;11636;52.086;5.090;2022-07-12T02:04:27;2.33;;;1.60;;
22939;SDS011;11636;52.086;5.090;2022-07-12T02:07:00;2.20;;;1.40;;
22939;SDS011;11636;52.086;5.090;2022-07-12T02:09:28;2.20;;;1.20;;
22939;SDS011;11636;52.086;5.090;2022-07-12T02:12:01;2.47;;;1.40;;
22939;SDS011;11636;52.086;5.090;2022-07-12T02:14:29;2.70;;;1.63;;
22939;SDS011;11636;52.086;5.090;2022-07-12T02:16:56;2.28;;;1.40;;
22939;SDS011;11636;52.086;5.090;2022-07-12T02:19:29;2.15;;;1.38;;
22939;SDS011;11636;52.086;5.090;2022-07-12T02:21:56;2.47;;;1.58;;
22939;SDS011;11636;52.086;5.090;2022-07-12T02:24:29;2.75;;;1.45;;
22939;SDS011;11636;52.086;5.090;2022-07-12T02:26:58;2.20;;;1.40;;
22939;SDS011;11636;52.086;5.090;2022-07-12T02:29:25;2.88;;;1.65;;
22939;SDS011;11636;52.086;5.090;2022-07-12T02:31:59;2.67;;;1.50;;
22939;SDS011;11636;52.086;5.090;2022-07-12T02:34:26;2.47;;;1.40;;
22939;SDS011;11636;52.086;5.090;2022-07-12T02:36:53;2.15;;;1.42;;
22939;SDS011;11636;52.086;5.090;2022-07-12T02:39:26;2.70;;;1.70;;
22939;SDS011;11636;52.086;5.090;2022-07-12T02:41:53;2.70;;;1.70;;
22939;SDS011;11636;52.086;5.090;2022-07-12T02:44:26;2.20;;;1.50;;
22939;SDS011;11636;52.086;5.090;2022-07-12T02:46:53;2.70;;;1.40;;
22939;SDS011;11636;52.086;5.090;2022-07-12T02:49:26;2.40;;;1.50;;
22939;SDS011;11636;52.086;5.090;2022-07-12T02:51:57;2.13;;;1.33;;
22939;SDS011;11636;52.086;5.090;2022-07-12T02:54:37;2.50;;;1.60;;
22939;SDS011;11636;52.086;5.090;2022-07-12T02:57:04;2.20;;;1.48;;
22939;SDS011;11636;52.086;5.090;2022-07-12T02:59:31;2.80;;;2.00;;
22939;SDS011;11636;52.086;5.090;2022-07-12T03:02:04;3.28;;;2.10;;
22939;SDS011;11636;52.086;5.090;2022-07-12T03:04:35;2.50;;;1.70;;
22939;SDS011;11636;52.086;5.090;2022-07-12T03:07:08;2.88;;;2.10;;
22939;SDS011;11636;52.086;5.090;2022-07-12T03:09:35;2.30;;;1.50;;
22939;SDS011;11636;52.086;5.090;2022-07-12T03:12:08;2.47;;;1.75;;
22939;SDS011;11636;52.086;5.090;2022-07-12T03:14:41;3.05;;;1.90;;
22939;SDS011;11636;52.086;5.090;2022-07-12T03:17:15;2.70;;;1.70;;
22939;SDS011;11636;52.086;5.090;2022-07-12T03:19:42;2.90;;;2.10;;
22939;SDS011;11636;52.086;5.090;2022-07-12T03:22:15;2.30;;;1.50;;
22939;SDS011;11636;52.086;5.090;2022-07-12T03:24:42;2.95;;;1.95;;
22939;SDS011;11636;52.086;5.090;2022-07-12T03:27:09;2.97;;;1.92;;
22939;SDS011;11636;52.086;5.090;2022-07-12T03:29:42;2.75;;;1.98;;
22939;SDS011;11636;52.086;5.090;2022-07-12T03:32:09;3.10;;;1.95;;
22939;SDS011;11636;52.086;5.090;2022-07-12T03:34:42;3.17;;;2.00;;
22939;SDS011;11636;52.086;5.090;2022-07-12T03:37:09;2.92;;;2.00;;
22939;SDS011;11636;52.086;5.090;2022-07-12T03:39:57;2.90;;;1.90;;
22939;SDS011;11636;52.086;5.090;2022-07-12T03:42:37;2.47;;;1.65;;
22939;SDS011;11636;52.086;5.090;2022-07-12T03:45:11;2.53;;;1.83;;
22939;SDS011;11636;52.086;5.090;2022-07-12T03:47:39;3.20;;;2.30;;
22939;SDS011;11636;52.086;5.090;2022-07-12T03:50:13;3.00;;;2.20;;
22939;SDS011;11636;52.086;5.090;2022-07-12T03:52:40;3.05;;;2.10;;
22939;SDS011;11636;52.086;5.090;2022-07-12T03:55:09;3.17;;;2.17;;
22939;SDS011;11636;52.086;5.090;2022-07-12T03:57:43;2.80;;;2.05;;
22939;SDS011;11636;52.086;5.090;2022-07-12T04:00:10;2.60;;;1.90;;
22939;SDS011;11636;52.086;5.090;2022-07-12T04:02:45;3.25;;;1.98;;
22939;SDS011;11636;52.086;5.090;2022-07-12T04:05:19;3.33;;;1.80;;
22939;SDS011;11636;52.086;5.090;2022-07-12T04:07:46;3.53;;;1.95;;
22939;SDS011;11636;52.086;5.090;2022-07-12T04:10:21;2.63;;;2.00;;
22939;SDS011;11636;52.086;5.090;2022-07-12T04:12:48;2.85;;;2.00;;
22939;SDS011;11636;52.086;5.090;2022-07-12T04:15:16;2.97;;;2.20;;
22939;SDS011;11636;52.086;5.090;2022-07-12T04:17:49;2.58;;;1.70;;
22939;SDS011;11636;52.086;5.090;2022-07-12T04:20:22;2.72;;;1.60;;
22939;SDS011;11636;52.086;5.090;2022-07-12T04:22:49;2.40;;;1.60;;
22939;SDS011;11636;52.086;5.090;2022-07-12T04:25:22;2.78;;;1.60;;
22939;SDS011;11636;52.086;5.090;2022-07-12T04:27:51;2.58;;;1.63;;
22939;SDS011;11636;52.086;5.090;2022-07-12T04:30:19;2.40;;;1.67;;
22939;SDS011;11636;52.086;5.090;2022-07-12T04:32:52;2.40;;;1.65;;
22939;SDS011;11636;52.086;5.090;2022-07-12T04:35:20;2.78;;;1.80;;
22939;SDS011;11636;52.086;5.090;2022-07-12T04:37:46;2.60;;;1.70;;
22939;SDS011;11636;52.086;5.090;2022-07-12T04:40:20;2.47;;;1.73;;
22939;SDS011;11636;52.086;5.090;2022-07-12T04:42:53;2.95;;;1.58;;
22939;SDS011;11636;52.086;5.090;2022-07-12T04:45:21;2.67;;;1.70;;
22939;SDS011;11636;52.086;5.090;2022-07-12T04:47:54;3.25;;;1.60;;
22939;SDS011;11636;52.086;5.090;2022-07-12T04:50:28;2.70;;;2.03;;
22939;SDS011;11636;52.086;5.090;2022-07-12T04:53:01;2.97;;;2.05;;
22939;SDS011;11636;52.086;5.090;2022-07-12T04:55:28;2.40;;;1.65;;
22939;SDS011;11636;52.086;5.090;2022-07-12T04:58:02;2.33;;;1.52;;
22939;SDS011;11636;52.086;5.090;2022-07-12T05:00:32;2.67;;;1.60;;
22939;SDS011;11636;52.086;5.090;2022-07-12T05:02:59;2.60;;;2.00;;
22939;SDS011;11636;52.086;5.090;2022-07-12T05:05:33;2.30;;;1.50;;
22939;SDS011;11636;52.086;5.090;2022-07-12T05:08:06;3.78;;;2.42;;
22939;SDS011;11636;52.086;5.090;2022-07-12T05:10:36;2.70;;;1.90;;
22939;SDS011;11636;52.086;5.090;2022-07-12T05:13:10;4.20;;;3.08;;
22939;SDS011;11636;52.086;5.090;2022-07-12T05:15:37;4.07;;;3.40;;
22939;SDS011;11636;52.086;5.090;2022-07-12T05:18:04;2.80;;;2.10;;
22939;SDS011;11636;52.086;5.090;2022-07-12T05:20:39;5.82;;;3.50;;
22939;SDS011;11636;52.086;5.090;2022-07-12T05:23:17;4.20;;;2.88;;
22939;SDS011;11636;52.086;5.090;2022-07-12T05:25:44;2.65;;;1.92;;
22939;SDS011;11636;52.086;5.090;2022-07-12T05:28:16;3.67;;;2.95;;
22939;SDS011;11636;52.086;5.090;2022-07-12T05:30:52;4.22;;;3.35;;
22939;SDS011;11636;52.086;5.090;2022-07-12T05:33:26;3.83;;;2.90;;
22939;SDS011;11636;52.086;5.090;2022-07-12T05:35:53;3.67;;;2.42;;
22939;SDS011;11636;52.086;5.090;2022-07-12T05:38:26;2.40;;;1.70;;
22939;SDS011;11636;52.086;5.090;2022-07-12T05:40:54;2.30;;;1.60;;
22939;SDS011;11636;52.086;5.090;2022-07-12T05:43:27;2.83;;;2.20;;
22939;SDS011;11636;52.086;5.090;2022-07-12T05:45:55;2.70;;;1.90;;
22939;SDS011;11636;52.086;5.090;2022-07-12T05:48:36;2.83;;;2.22;;
22939;SDS011;11636;52.086;5.090;2022-07-12T05:51:03;2.75;;;1.70;;
22939;SDS011;11636;52.086;5.090;2022-07-12T05:54:09;2.40;;;1.63;;
22939;SDS011;11636;52.086;5.090;2022-07-12T05:56:37;3.60;;;3.22;;
22939;SDS011;11636;52.086;5.090;2022-07-12T05:59:10;2.28;;;1.65;;
22939;SDS011;11636;52.086;5.090;2022-07-12T06:01:37;3.65;;;2.95;;
22939;SDS011;11636;52.086;5.090;2022-07-12T06:04:10;4.00;;;2.92;;
22939;SDS011;11636;52.086;5.090;2022-07-12T06:06:37;4.38;;;2.90;;
22939;SDS011;11636;52.086;5.090;2022-07-12T06:09:10;3.53;;;2.63;;
22939;SDS011;11636;52.086;5.090;2022-07-12T06:11:37;4.15;;;3.03;;
22939;SDS011;11636;52.086;5.090;2022-07-12T06:14:04;4.50;;;4.05;;
22939;SDS011;11636;52.086;5.090;2022-07-12T06:16:37;3.63;;;2.58;;
22939;SDS011;11636;52.086;5.090;2022-07-12T06:19:04;3.90;;;2.45;;
22939;SDS011;11636;52.086;5.090;2022-07-12T06:21:37;5.00;;;4.20;;
22939;SDS011;11636;52.086;5.090;2022-07-12T06:24:11;3.63;;;2.80;;
22939;SDS011;11636;52.086;5.090;2022-07-12T06:26:45;4.25;;;3.50;;
22939;SDS011;11636;52.086;5.090;2022-07-12T06:29:17;3.75;;;3.22;;
22939;SDS011;11636;52.086;5.090;2022-07-12T06:31:51;4.57;;;3.45;;
22939;SDS011;11636;52.086;5.090;2022-07-12T06:34:17;5.07;;;3.78;;
22939;SDS011;11636;52.086;5.090;2022-07-12T06:36:51;3.78;;;2.90;;
22939;SDS011;11636;52.086;5.090;2022-07-12T06:39:18;4.82;;;3.08;;
22939;SDS011;11636;52.086;5.090;2022-07-12T06:41:45;3.22;;;2.60;;
22939;SDS011;11636;52.086;5.090;2022-07-12T06:44:21;3.42;;;3.05;;
22939;SDS011;11636;52.086;5.090;2022-07-12T06:46:48;3.13;;;2.08;;
22939;SDS011;11636;52.086;5.090;2022-07-12T06:49:22;4.65;;;3.47;;
22939;SDS011;11636;52.086;5.090;2022-07-12T06:51:49;3.33;;;2.60;;
22939;SDS011;11636;52.086;5.090;2022-07-12T06:54:23;3.40;;;2.70;;
22939;SDS011;11636;52.086;5.090;2022-07-12T06:56:49;2.92;;;2.08;;
22939;SDS011;11636;52.086;5.090;2022-07-12T06:59:22;2.97;;;2.00;;
22939;SDS011;11636;52.086;5.090;2022-07-12T07:01:49;4.25;;;3.40;;
22939;SDS011;11636;52.086;5.090;2022-07-12T07:04:25;4.90;;;3.85;;
22939;SDS011;11636;52.086;5.090;2022-07-12T07:06:52;3.97;;;2.50;;
22939;SDS011;11636;52.086;5.090;2022-07-12T07:09:20;4.13;;;2.75;;
22939;SDS011;11636;52.086;5.090;2022-07-12T07:11:56;2.63;;;1.90;;
22939;SDS011;11636;52.086;5.090;2022-07-12T07:14:31;2.47;;;2.03;;
22939;SDS011;11636;52.086;5.090;2022-07-12T07:17:04;2.75;;;1.80;;
22939;SDS011;11636;52.086;5.090;2022-07-12T07:19:31;1.90;;;1.30;;
22939;SDS011;11636;52.086;5.090;2022-07-12T07:22:05;2.67;;;2.15;;
22939;SDS011;11636;52.086;5.090;2022-07-12T07:24:38;3.90;;;2.70;;
22939;SDS011;11636;52.086;5.090;2022-07-12T07:27:06;5.07;;;4.13;;
22939;SDS011;11636;52.086;5.090;2022-07-12T07:29:41;3.42;;;2.50;;
22939;SDS011;11636;52.086;5.090;2022-07-12T07:32:26;3.35;;;2.25;;
22939;SDS011;11636;52.086;5.090;2022-07-12T07:35:00;3.67;;;2.20;;
22939;SDS011;11636;52.086;5.090;2022-07-12T07:37:34;3.67;;;2.83;;
22939;SDS011;11636;52.086;5.090;2022-07-12T07:40:07;4.47;;;3.45;;
22939;SDS011;11636;52.086;5.090;2022-07-12T07:42:41;3.25;;;2.63;;
22939;SDS011;11636;52.086;5.090;2022-07-12T07:45:07;5.18;;;3.67;;
22939;SDS011;11636;52.086;5.090;2022-07-12T07:47:48;3.20;;;2.65;;
22939;SDS011;11636;52.086;5.090;2022-07-12T07:50:40;2.92;;;2.42;;
22939;SDS011;11636;52.086;5.090;2022-07-12T07:53:14;4.03;;;3.28;;
22939;SDS011;11636;52.086;5.090;2022-07-12T07:55:40;4.18;;;3.25;;
22939;SDS011;11636;52.086;5.090;2022-07-12T07:58:14;3.65;;;3.17;;
22939;SDS011;11636;52.086;5.090;2022-07-12T08:00:42;2.88;;;2.08;;
22939;SDS011;11636;52.086;5.090;2022-07-12T08:03:16;2.80;;;1.92;;
22939;SDS011;11636;52.086;5.090;2022-07-12T08:05:45;2.17;;;1.25;;
22939;SDS011;11636;52.086;5.090;2022-07-12T08:08:19;2.53;;;1.67;;
22939;SDS011;11636;52.086;5.090;2022-07-12T08:11:12;6.18;;;5.20;;
22939;SDS011;11636;52.086;5.090;2022-07-12T08:13:39;5.00;;;3.90;;
22939;SDS011;11636;52.086;5.090;2022-07-12T08:16:12;4.95;;;3.67;;
22939;SDS011;11636;52.086;5.090;2022-07-12T08:18:45;4.03;;;2.67;;
22939;SDS011;11636;52.086;5.090;2022-07-12T08:21:12;5.47;;;3.85;;
22939;SDS011;11636;52.086;5.090;2022-07-12T08:23:46;4.68;;;3.67;;
22939;SDS011;11636;52.086;5.090;2022-07-12T08:26:12;4.70;;;2.22;;
22939;SDS011;11636;52.086;5.090;2022-07-12T08:28:46;7.38;;;4.47;;
22939;SDS011;11636;52.086;5.090;2022-07-12T08:31:12;3.22;;;2.42;;
22939;SDS011;11636;52.086;5.090;2022-07-12T08:33:47;3.80;;;3.10;;
22939;SDS011;11636;52.086;5.090;2022-07-12T08:36:14;3.97;;;3.10;;
22939;SDS011;11636;52.086;5.090;2022-07-12T08:38:47;4.40;;;2.83;;
22939;SDS011;11636;52.086;5.090;2022-07-12T08:41:14;8.23;;;5.68;;
22939;SDS011;11636;52.086;5.090;2022-07-12T08:43:48;8.45;;;6.47;;
22939;SDS011;11636;52.086;5.090;2022-07-12T08:46:14;5.30;;;4.32;;
22939;SDS011;11636;52.086;5.090;2022-07-12T08:48:48;8.30;;;5.15;;
22939;SDS011;11636;52.086;5.090;2022-07-12T08:51:22;5.05;;;3.70;;
22939;SDS011;11636;52.086;5.090;2022-07-12T08:54:03;5.65;;;4.55;;
22939;SDS011;11636;52.086;5.090;2022-07-12T08:56:41;6.43;;;5.72;;
22939;SDS011;11636;52.086;5.090;2022-07-12T08:59:17;4.50;;;3.85;;
22939;SDS011;11636;52.086;5.090;2022-07-12T09:04:25;3.70;;;2.65;;
22939;SDS011;11636;52.086;5.090;2022-07-12T09:07:12;3.05;;;2.00;;
22939;SDS011;11636;52.086;5.090;2022-07-12T09:09:43;4.20;;;2.80;;
22939;SDS011;11636;52.086;5.090;2022-07-12T09:12:26;3.78;;;2.78;;
22939;SDS011;11636;52.086;5.090;2022-07-12T09:14:53;7.35;;;4.32;;
22939;SDS011;11636;52.086;5.090;2022-07-12T09:17:26;3.88;;;2.60;;
22939;SDS011;11636;52.086;5.090;2022-07-12T09:19:59;3.75;;;3.20;;
22939;SDS011;11636;52.086;5.090;2022-07-12T09:22:26;3.38;;;2.45;;
22939;SDS011;11636;52.086;5.090;2022-07-12T09:25:08;5.32;;;3.17;;
22939;SDS011;11636;52.086;5.090;2022-07-12T09:27:51;4.65;;;3.25;;
22939;SDS011;11636;52.086;5.090;2022-07-12T09:30:26;4.57;;;2.60;;
22939;SDS011;11636;52.086;5.090;2022-07-12T09:33:02;2.63;;;1.80;;
22939;SDS011;11636;52.086;5.090;2022-07-12T09:38:51;3.13;;;2.17;;
22939;SDS011;11636;52.086;5.090;2022-07-12T09:41:26;3.60;;;1.98;;
22939;SDS011;11636;52.086;5.090;2022-07-12T09:44:00;5.72;;;3.28;;
22939;SDS011;11636;52.086;5.090;2022-07-12T09:46:28;3.55;;;2.10;;
22939;SDS011;11636;52.086;5.090;2022-07-12T09:49:02;3.25;;;2.08;;
22939;SDS011;11636;52.086;5.090;2022-07-12T09:54:11;3.47;;;2.50;;
22939;SDS011;11636;52.086;5.090;2022-07-12T09:56:58;5.18;;;3.70;;
22939;SDS011;11636;52.086;5.090;2022-07-12T09:59:35;7.72;;;4.68;;
22939;SDS011;11636;52.086;5.090;2022-07-12T10:02:12;5.78;;;4.28;;
22939;SDS011;11636;52.086;5.090;2022-07-12T10:04:42;4.20;;;3.22;;
22939;SDS011;11636;52.086;5.090;2022-07-12T10:07:17;4.80;;;2.63;;
22939;SDS011;11636;52.086;5.090;2022-07-12T10:09:44;3.55;;;2.50;;
22939;SDS011;11636;52.086;5.090;2022-07-12T10:12:15;3.78;;;2.50;;
22939;SDS011;11636;52.086;5.090;2022-07-12T10:14:51;9.07;;;4.72;;
22939;SDS011;11636;52.086;5.090;2022-07-12T10:17:30;5.45;;;4.20;;
22939;SDS011;11636;52.086;5.090;2022-07-12T10:20:16;8.50;;;5.97;;
22939;SDS011;11636;52.086;5.090;2022-07-12T10:22:54;7.47;;;4.32;;
22939;SDS011;11636;52.086;5.090;2022-07-12T10:25:34;5.05;;;3.58;;
22939;SDS011;11636;52.086;5.090;2022-07-12T10:28:08;6.72;;;4.45;;
22939;SDS011;11636;52.086;5.090;2022-07-12T10:30:42;5.25;;;2.97;;
22939;SDS011;11636;52.086;5.090;2022-07-12T10:33:21;4.75;;;4.15;;
22939;SDS011;11636;52.086;5.090;2022-07-12T10:36:05;4.38;;;3.22;;
22939;SDS011;11636;52.086;5.090;2022-07-12T10:38:40;3.60;;;2.78;;
22939;SDS011;11636;52.086;5.090;2022-07-12T10:41:20;4.38;;;2.97;;
22939;SDS011;11636;52.086;5.090;2022-07-12T10:44:03;4.75;;;2.90;;
22939;SDS011;11636;52.086;5.090;2022-07-12T10:46:37;4.65;;;3.63;;
22939;SDS011;11636;52.086;5.090;2022-07-12T10:49:29;3.63;;;2.53;;
22939;SDS011;11636;52.086;5.090;2022-07-12T10:54:40;4.80;;;3.60;;
22939;SDS011;11636;52.086;5.090;2022-07-12T10:57:15;4.43;;;2.60;;
22939;SDS011;11636;52.086;5.090;2022-07-12T11:00:02;4.28;;;2.67;;
22939;SDS011;11636;52.086;5.090;2022-07-12T11:02:37;3.35;;;1.70;;
22939;SDS011;11636;52.086;5.090;2022-07-12T11:05:04;3.15;;;2.00;;
22939;SDS011;11636;52.086;5.090;2022-07-12T11:07:38;4.13;;;2.20;;
22939;SDS011;11636;52.086;5.090;2022-07-12T11:10:06;2.25;;;1.48;;
22939;SDS011;11636;52.086;5.090;2022-07-12T11:12:40;6.10;;;2.55;;
22939;SDS011;11636;52.086;5.090;2022-07-12T11:15:07;4.72;;;3.53;;
22939;SDS011;11636;52.086;5.090;2022-07-12T11:17:41;5.47;;;4.22;;
22939;SDS011;11636;52.086;5.090;2022-07-12T11:20:12;4.68;;;2.88;;
22939;SDS011;11636;52.086;5.090;2022-07-12T11:22:46;4.55;;;3.28;;
22939;SDS011;11636;52.086;5.090;2022-07-12T11:25:15;7.75;;;4.13;;
22939;SDS011;11636;52.086;5.090;2022-07-12T11:27:42;10.95;;;5.75;;
22939;SDS011;11636;52.086;5.090;2022-07-12T11:30:18;5.63;;;2.90;;
22939;SDS011;11636;52.086;5.090;2022-07-12T11:32:45;9.40;;;4.47;;
22939;SDS011;11636;52.086;5.090;2022-07-12T11:35:22;7.35;;;5.28;;
22939;SDS011;11636;52.086;5.090;2022-07-12T11:37:53;5.50;;;2.75;;
22939;SDS011;11636;52.086;5.090;2022-07-12T11:40:29;3.00;;;1.90;;
22939;SDS011;11636;52.086;5.090;2022-07-12T11:43:04;6.63;;;3.22;;
22939;SDS011;11636;52.086;5.090;2022-07-12T11:45:38;5.32;;;4.07;;
22939;SDS011;11636;52.086;5.090;2022-07-12T11:48:05;6.25;;;3.80;;
22939;SDS011;11636;52.086;5.090;2022-07-12T11:50:41;2.97;;;1.90;;
22939;SDS011;11636;52.086;5.090;2022-07-12T11:53:20;5.57;;;4.82;;
22939;SDS011;11636;52.086;5.090;2022-07-12T11:55:59;7.07;;;5.47;;
22939;SDS011;11636;52.086;5.090;2022-07-12T11:58:36;11.40;;;6.70;;
22939;SDS011;11636;52.086;5.090;2022-07-12T12:01:10;5.68;;;4.65;;
22939;SDS011;11636;52.086;5.090;2022-07-12T12:03:45;7.45;;;4.35;;
22939;SDS011;11636;52.086;5.090;2022-07-12T12:06:19;8.85;;;7.22;;
22939;SDS011;11636;52.086;5.090;2022-07-12T12:08:50;9.52;;;7.32;;
22939;SDS011;11636;52.086;5.090;2022-07-12T12:11:26;7.50;;;5.10;;
22939;SDS011;11636;52.086;5.090;2022-07-12T12:16:23;4.45;;;3.00;;
22939;SDS011;11636;52.086;5.090;2022-07-12T12:18:59;3.28;;;2.35;;
22939;SDS011;11636;52.086;5.090;2022-07-12T12:21:27;7.68;;;5.75;;
22939;SDS011;11636;52.086;5.090;2022-07-12T12:24:09;4.80;;;3.70;;
22939;SDS011;11636;52.086;5.090;2022-07-12T12:26:37;3.17;;;2.30;;
22939;SDS011;11636;52.086;5.090;2022-07-12T12:29:10;7.10;;;5.93;;
22939;SDS011;11636;52.086;5.090;2022-07-12T12:31:37;4.13;;;2.65;;
22939;SDS011;11636;52.086;5.090;2022-07-12T12:34:10;3.25;;;2.60;;
22939;SDS011;11636;52.086;5.090;2022-07-12T12:36:38;3.20;;;1.95;;
22939;SDS011;11636;52.086;5.090;2022-07-12T12:39:12;3.20;;;2.45;;
22939;SDS011;11636;52.086;5.090;2022-07-12T12:41:57;5.60;;;2.75;;
22939;SDS011;11636;52.086;5.090;2022-07-12T12:44:30;3.20;;;2.50;;
22939;SDS011;11636;52.086;5.090;2022-07-12T12:47:06;2.45;;;1.85;;
22939;SDS011;11636;52.086;5.090;2022-07-12T12:49:58;2.85;;;2.13;;
22939;SDS011;11636;52.086;5.090;2022-07-12T12:52:29;3.95;;;2.58;;
22939;SDS011;11636;52.086;5.090;2022-07-12T12:55:02;6.60;;;3.55;;
22939;SDS011;11636;52.086;5.090;2022-07-12T12:57:30;3.55;;;2.60;;
22939;SDS011;11636;52.086;5.090;2022-07-12T12:59:57;2.65;;;1.85;;
22939;SDS011;11636;52.086;5.090;2022-07-12T13:02:30;3.60;;;2.53;;
22939;SDS011;11636;52.086;5.090;2022-07-12T13:04:57;3.38;;;2.30;;
22939;SDS011;11636;52.086;5.090;2022-07-12T13:07:30;2.83;;;1.70;;
22939;SDS011;11636;52.086;5.090;2022-07-12T13:09:57;2.92;;;2.15;;
22939;SDS011;11636;52.086;5.090;2022-07-12T13:12:24;5.00;;;2.60;;
22939;SDS011;11636;52.086;5.090;2022-07-12T13:14:57;3.47;;;2.55;;
22939;SDS011;11636;52.086;5.090;2022-07-12T13:17:24;4.15;;;2.65;;
22939;SDS011;11636;52.086;5.090;2022-07-12T13:19:57;5.57;;;2.90;;
22939;SDS011;11636;52.086;5.090;2022-07-12T13:22:30;5.30;;;2.50;;
22939;SDS011;11636;52.086;5.090;2022-07-12T13:25:04;3.90;;;2.17;;
22939;SDS011;11636;52.086;5.090;2022-07-12T13:27:33;3.58;;;2.38;;
22939;SDS011;11636;52.086;5.090;2022-07-12T13:30:08;3.40;;;2.00;;
22939;SDS011;11636;52.086;5.090;2022-07-12T13:32:37;3.10;;;1.75;;
22939;SDS011;11636;52.086;5.090;2022-07-12T13:35:18;5.30;;;2.90;;
22939;SDS011;11636;52.086;5.090;2022-07-12T13:37:44;3.55;;;2.20;;
22939;SDS011;11636;52.086;5.090;2022-07-12T13:40:22;4.05;;;2.63;;
22939;SDS011;11636;52.086;5.090;2022-07-12T13:42:55;4.95;;;2.47;;
22939;SDS011;11636;52.086;5.090;2022-07-12T13:45:28;3.53;;;2.15;;
22939;SDS011;11636;52.086;5.090;2022-07-12T13:47:55;2.40;;;1.70;;
22939;SDS011;11636;52.086;5.090;2022-07-12T13:50:28;5.45;;;2.70;;
22939;SDS011;11636;52.086;5.090;2022-07-12T13:52:58;5.05;;;2.60;;
22939;SDS011;11636;52.086;5.090;2022-07-12T13:55:32;5.50;;;3.03;;
22939;SDS011;11636;52.086;5.090;2022-07-12T13:57:59;3.58;;;2.85;;
22939;SDS011;11636;52.086;5.090;2022-07-12T14:00:28;3.85;;;2.80;;
22939;SDS011;11636;52.086;5.090;2022-07-12T14:03:01;6.72;;;3.10;;
22939;SDS011;11636;52.086;5.090;2022-07-12T14:05:35;4.93;;;2.50;;
22939;SDS011;11636;52.086;5.090;2022-07-12T14:08:09;4.32;;;2.40;;
22939;SDS011;11636;52.086;5.090;2022-07-12T14:10:42;3.17;;;1.70;;
22939;SDS011;11636;52.086;5.090;2022-07-12T14:13:09;4.45;;;2.25;;
22939;SDS011;11636;52.086;5.090;2022-07-12T14:15:43;6.00;;;2.95;;
22939;SDS011;11636;52.086;5.090;2022-07-12T14:18:17;6.25;;;3.58;;
22939;SDS011;11636;52.086;5.090;2022-07-12T14:20:48;5.35;;;2.70;;
22939;SDS011;11636;52.086;5.090;2022-07-12T14:23:21;4.70;;;2.50;;
22939;SDS011;11636;52.086;5.090;2022-07-12T14:25:54;3.60;;;2.50;;
22939;SDS011;11636;52.086;5.090;2022-07-12T14:28:27;4.13;;;2.95;;
22939;SDS011;11636;52.086;5.090;2022-07-12T14:31:02;3.78;;;2.00;;
22939;SDS011;11636;52.086;5.090;2022-07-12T14:33:31;4.15;;;1.95;;
22939;SDS011;11636;52.086;5.090;2022-07-12T14:36:04;4.53;;;2.20;;
22939;SDS011;11636;52.086;5.090;2022-07-12T14:38:31;4.25;;;2.00;;
22939;SDS011;11636;52.086;5.090;2022-07-12T14:41:04;3.25;;;2.20;;
22939;SDS011;11636;52.086;5.090;2022-07-12T14:43:31;3.38;;;2.17;;
22939;SDS011;11636;52.086;5.090;2022-07-12T14:45:58;4.30;;;2.15;;
22939;SDS011;11636;52.086;5.090;2022-07-12T14:48:31;3.60;;;1.65;;
22939;SDS011;11636;52.086;5.090;2022-07-12T14:50:58;2.90;;;1.95;;
22939;SDS011;11636;52.086;5.090;2022-07-12T14:53:32;3.63;;;2.63;;
22939;SDS011;11636;52.086;5.090;2022-07-12T14:56:06;4.28;;;2.58;;
22939;SDS011;11636;52.086;5.090;2022-07-12T14:58:39;4.68;;;1.88;;
22939;SDS011;11636;52.086;5.090;2022-07-12T15:01:18;3.95;;;1.90;;
22939;SDS011;11636;52.086;5.090;2022-07-12T15:03:48;6.13;;;1.88;;
22939;SDS011;11636;52.086;5.090;2022-07-12T15:06:22;2.92;;;1.63;;
22939;SDS011;11636;52.086;5.090;2022-07-12T15:08:52;3.25;;;2.00;;
22939;SDS011;11636;52.086;5.090;2022-07-12T15:11:26;2.63;;;1.70;;
22939;SDS011;11636;52.086;5.090;2022-07-12T15:13:59;2.80;;;1.67;;
22939;SDS011;11636;52.086;5.090;2022-07-12T15:16:26;4.07;;;1.90;;
22939;SDS011;11636;52.086;5.090;2022-07-12T15:18:56;3.10;;;2.00;;
22939;SDS011;11636;52.086;5.090;2022-07-12T15:21:30;3.50;;;2.10;;
22939;SDS011;11636;52.086;5.090;2022-07-12T15:24:03;4.18;;;2.85;;
22939;SDS011;11636;52.086;5.090;2022-07-12T15:26:30;4.60;;;1.90;;
22939;SDS011;11636;52.086;5.090;2022-07-12T15:29:05;2.83;;;1.80;;
22939;SDS011;11636;52.086;5.090;2022-07-12T15:31:38;2.28;;;1.58;;